MMAA/ACA METAR and TAF weather

Enter ICAO airport designator
Station Type Date Time Source
MMAA METAR 2020/08/06 00:50 UTC NOAA

MMAA 060050Z 26004KT 6SM SCT020CB BKN090 OVC300 30/26 A2980 RMK 8/963 HZY OCNL DROPS


Station Type Date Time Source
MMAA Decoded METAR 2020/08/06 00:50 UTC NOAA

Acapulco / G. Alvarez, Mexico (MMAA) 16-46N 099-45W
Aug 05, 2020 - 08:50 PM EDT / 2020.08.06 0050 UTC
Wind: from the W (260 degrees) at 5 MPH (4 KT):0
Visibility: 6 mile(s):0
Sky conditions: overcast
Weather: Cumulonimbus clouds observed
Temperature: 86 F (30 C)
Heat index: 99.3 F (37.4 C):1
Dew Point: 78 F (26 C)
Relative Humidity: 79%
Pressure (altimeter): 29.8 in. Hg (1009 hPa)
ob: MMAA 060050Z 26004KT 6SM SCT020CB BKN090 OVC300 30/26 A2980 RMK 8/963 HZY OCNL DROPS
cycle: 1

Station Type Date Time Source
MMAA TAF 2020/08/05 18:21 UTC NOAA

TAF MMAA 051717Z 0518/0624 20012KT P6SM SCT015 TX33/0520Z TN27/0610Z
FM060000 04005KT P6SM SCT015CB PROB40 0600/0604 5SM TSRA BKN015CB
FM060600 00000KT P6SM SCT100 BKN200
FM062000 23012KT P6SM SCT025 BKN250

Example: see airport list